Time;durP1;ratioP1;P1;durP2;ratioP2;P2;SDS_P1;SDS_P2;PMS_P1;PMS_P2;Temp;Humidity;BMP_temperature;BMP_pressure;BME280_temperature;BME280_humidity;BME280_pressure;Samples;Min_cycle;Max_cycle;Signal;HPM_P1;HPM_P2
2021/08/27 00:01:30;;;;;;;12.70;9.80;;;;;;;12.94;95.05;98304.36;111539;1201;61098;-84
2021/08/27 00:03:57;;;;;;;11.60;10.50;;;;;;;12.92;95.12;98301.84;111569;1201;62412;-83
2021/08/27 00:06:23;;;;;;;12.70;10.40;;;;;;;12.93;95.22;98296.30;111395;1201;61151;-84
2021/08/27 00:08:50;;;;;;;12.50;11.20;;;;;;;12.91;95.24;98294.66;111517;1195;61062;-83
2021/08/27 00:11:17;;;;;;;12.70;11.40;;;;;;;12.87;95.34;98289.27;111494;1200;65657;-84
2021/08/27 00:13:44;;;;;;;12.40;9.20;;;;;;;12.86;95.44;98285.27;111515;1192;60990;-84
2021/08/27 00:16:11;;;;;;;6.50;5.90;;;;;;;12.87;95.53;98285.37;111488;1201;63989;-83
2021/08/27 00:18:37;;;;;;;6.30;5.50;;;;;;;12.87;95.54;98282.67;111502;1193;61105;-83
2021/08/27 00:21:04;;;;;;;8.20;5.10;;;;;;;12.87;95.52;98280.94;111556;1200;61018;-83
2021/08/27 00:23:31;;;;;;;5.80;5.00;;;;;;;12.85;95.54;98283.73;111338;1193;65669;-83
2021/08/27 00:25:58;;;;;;;7.10;5.10;;;;;;;12.87;95.54;98284.69;111313;1192;61041;-84
2021/08/27 00:28:24;;;;;;;7.10;5.60;;;;;;;12.88;95.49;98282.09;111545;1200;63891;-84
2021/08/27 00:30:51;;;;;;;7.30;6.10;;;;;;;12.91;95.63;98282.55;111508;1200;61040;-83
2021/08/27 00:33:18;;;;;;;8.70;6.40;;;;;;;12.93;95.65;98281.06;111566;1195;60973;-83
2021/08/27 00:35:44;;;;;;;6.60;5.90;;;;;;;12.95;95.60;98280.05;111495;1200;65662;-83
2021/08/27 00:38:14;;;;;;;5.70;5.00;;;;;;;12.95;95.52;98275.60;111328;1201;61208;-83
2021/08/27 00:40:42;;;;;;;6.90;6.10;;;;;;;12.95;95.62;98277.19;111526;1200;72674;-85
2021/08/27 00:43:13;;;;;;;7.10;5.00;;;;;;;12.97;95.75;98277.36;111533;1192;60985;-83
2021/08/27 00:45:41;;;;;;;7.90;5.80;;;;;;;13.00;95.65;98273.77;111501;1194;61050;-83
2021/08/27 00:48:08;;;;;;;5.30;4.80;;;;;;;13.02;95.77;98275.83;111503;1200;65999;-82
2021/08/27 00:50:36;;;;;;;7.30;5.70;;;;;;;13.05;95.77;98276.89;111518;1201;60970;-83
2021/08/27 00:53:03;;;;;;;6.30;5.00;;;;;;;13.06;95.69;98279.07;111593;1202;64063;-84
2021/08/27 00:55:30;;;;;;;7.10;6.40;;;;;;;13.08;95.71;98281.04;111592;1201;61114;-85
2021/08/27 00:57:56;;;;;;;11.30;9.00;;;;;;;13.10;95.62;98287.30;111569;1193;61084;-85
2021/08/27 01:00:24;;;;;;;9.90;8.80;;;;;;;13.09;95.49;98287.97;111650;1200;64575;-84
2021/08/27 01:02:54;;;;;;;10.50;9.30;;;;;;;13.06;95.57;98282.64;111614;1200;61073;-84
2021/08/27 01:05:21;;;;;;;8.30;7.40;;;;;;;13.06;95.49;98280.36;111493;1200;62884;-85
2021/08/27 01:08:08;;;;;;;8.10;7.30;;;;;;;13.03;95.38;98277.02;111512;1200;61491;-85
2021/08/27 01:10:40;;;;;;;9.20;8.30;;;;;;;13.02;95.39;98281.55;111343;1195;61695;-86
2021/08/27 01:13:34;;;;;;;9.90;8.10;;;;;;;13.01;95.46;98278.85;111558;1201;65005;-84
2021/08/27 01:16:04;;;;;;;8.60;7.60;;;;;;;13.03;95.64;98275.67;111538;1201;61089;-84
2021/08/27 01:19:19;;;;;;;9.60;7.90;;;;;;;13.02;95.52;98273.73;111339;1200;63689;-84
2021/08/27 01:22:26;;;;;;;9.40;8.50;;;;;;;12.99;95.39;98274.77;111542;1200;61085;-84
2021/08/27 01:24:56;;;;;;;10.30;9.00;;;;;;;12.95;95.48;98277.01;111565;1193;61021;-85
2021/08/27 01:27:25;;;;;;;9.80;8.20;;;;;;;12.91;95.43;98282.75;111538;1200;66110;-85
2021/08/27 01:30:03;;;;;;;7.60;6.80;;;;;;;12.86;95.43;98286.75;111480;1201;61053;-84
2021/08/27 01:32:38;;;;;;;7.90;7.00;;;;;;;12.79;95.37;98288.11;111498;1201;63875;-85
2021/08/27 01:35:09;;;;;;;9.40;6.50;;;;;;;12.73;95.59;98290.93;111521;1201;61075;-85
2021/08/27 01:37:37;;;;;;;6.10;5.50;;;;;;;12.72;95.62;98286.89;111525;1192;61076;-84
2021/08/27 01:40:05;;;;;;;6.00;5.10;;;;;;;12.68;95.49;98296.27;111551;1201;65984;-84
2021/08/27 01:42:35;;;;;;;8.30;5.30;;;;;;;12.67;95.79;98299.42;111564;1201;61018;-84
2021/08/27 01:45:02;;;;;;;6.20;5.60;;;;;;;12.66;95.75;98299.86;111552;1200;62583;-84
2021/08/27 01:47:32;;;;;;;9.60;6.40;;;;;;;12.67;95.85;98306.34;111337;1195;61473;-84
2021/08/27 01:50:00;;;;;;;;;;;;;;;12.66;95.91;98310.22;111544;1193;61072;-84
2021/08/27 01:52:28;;;;;;;7.50;6.80;;;;;;;12.63;95.95;98302.30;111514;1201;66139;-84
2021/08/27 01:54:57;;;;;;;7.40;6.70;;;;;;;12.62;96.11;98300.02;111547;1201;68606;-84
2021/08/27 01:57:27;;;;;;;6.90;6.00;;;;;;;12.62;96.14;98299.34;111367;1201;64070;-84
2021/08/27 01:59:56;;;;;;;6.60;6.00;;;;;;;12.60;96.21;98302.77;111500;1201;61069;-84
2021/08/27 02:02:23;;;;;;;7.60;5.90;;;;;;;12.59;96.38;98304.77;111636;1200;61038;-84
2021/08/27 02:04:53;;;;;;;6.80;6.10;;;;;;;12.61;96.46;98305.30;111484;1192;64587;-84
2021/08/27 02:07:21;;;;;;;11.10;6.20;;;;;;;12.63;96.42;98306.73;111559;1200;60875;-84
2021/08/27 02:09:52;;;;;;;7.90;6.20;;;;;;;12.67;96.52;98305.70;111318;1201;62303;-83
2021/08/27 02:12:20;;;;;;;7.50;6.50;;;;;;;12.67;96.42;98307.64;111566;1192;61066;-83
2021/08/27 02:14:50;;;;;;;7.30;6.30;;;;;;;12.65;96.34;98308.86;111541;1200;61002;-84
2021/08/27 02:17:18;;;;;;;9.30;7.10;;;;;;;12.66;96.63;98309.51;111572;1201;64617;-84
2021/08/27 02:19:45;;;;;;;12.10;9.10;;;;;;;12.66;96.64;98309.12;111523;1200;60983;-84
2021/08/27 02:22:15;;;;;;;7.80;5.90;;;;;;;12.66;96.74;98312.33;111276;1193;63843;-83
2021/08/27 02:24:48;;;;;;;8.80;6.50;;;;;;;12.67;96.85;98309.04;111568;1201;61052;-84
2021/08/27 02:27:15;;;;;;;7.20;6.20;;;;;;;12.66;96.77;98310.92;111379;1193;60970;-84
2021/08/27 02:29:44;;;;;;;9.90;6.10;;;;;;;12.65;97.00;98311.77;111515;1201;66004;-82
2021/08/27 02:32:12;;;;;;;7.40;6.20;;;;;;;12.66;96.97;98315.90;111530;1193;61031;-82
2021/08/27 02:34:43;;;;;;;7.10;5.70;;;;;;;12.66;97.10;98316.05;111549;1200;62599;-84
2021/08/27 02:37:13;;;;;;;7.00;6.00;;;;;;;12.72;97.37;98313.30;111495;1193;61152;-85
2021/08/27 02:39:40;;;;;;;7.00;5.70;;;;;;;12.80;97.37;98310.04;111521;1192;61002;-84
2021/08/27 02:42:08;;;;;;;6.90;6.10;;;;;;;12.87;97.31;98307.53;111555;1200;65978;-83
2021/08/27 02:44:35;;;;;;;7.10;6.20;;;;;;;12.92;97.23;98305.09;111534;1201;61082;-83
2021/08/27 02:47:03;;;;;;;7.20;6.40;;;;;;;12.93;97.04;98304.09;111515;1200;62608;-83
2021/08/27 02:49:30;;;;;;;6.90;6.00;;;;;;;12.92;96.95;98301.38;111517;1193;61057;-84
2021/08/27 02:52:39;;;;;;;6.90;5.90;;;;;;;12.89;96.94;98305.04;111309;1201;61166;-84
2021/08/27 02:55:11;;;;;;;9.50;5.70;;;;;;;12.86;97.03;98305.05;111330;1197;66224;-83
2021/08/27 02:57:53;;;;;;;9.20;6.40;;;;;;;12.87;97.10;98306.05;111482;1201;61098;-84
2021/08/27 03:00:21;;;;;;;6.80;6.10;;;;;;;12.88;97.01;98307.42;111497;1201;63970;-84
2021/08/27 03:02:52;;;;;;;7.70;5.70;;;;;;;12.88;97.11;98308.52;111514;1200;61089;-84
2021/08/27 03:05:22;;;;;;;7.70;5.90;;;;;;;12.88;97.11;98312.44;111550;1196;60992;-84
2021/08/27 03:08:03;;;;;;;9.60;6.00;;;;;;;12.88;97.22;98312.06;111534;1202;64827;-84
2021/08/27 03:10:37;;;;;;;8.10;6.20;;;;;;;12.89;97.21;98310.55;111556;1201;61235;-84
2021/08/27 03:13:11;;;;;;;8.50;5.90;;;;;;;12.85;97.16;98317.11;111546;1200;62600;-84
2021/08/27 03:15:43;;;;;;;7.60;6.00;;;;;;;12.84;97.28;98319.91;111526;1201;61460;-84
2021/08/27 03:18:16;;;;;;;6.90;5.60;;;;;;;12.89;97.45;98320.86;111578;1202;61060;-84
2021/08/27 03:20:46;;;;;;;6.40;5.40;;;;;;;12.96;97.41;98320.41;111520;1201;66068;-84
2021/08/27 03:23:14;;;;;;;8.80;7.30;;;;;;;13.03;97.43;98320.75;111562;1201;61088;-84
2021/08/27 03:25:44;;;;;;;7.60;6.80;;;;;;;13.08;97.36;98321.73;111530;1195;62976;-84
2021/08/27 03:28:19;;;;;;;7.40;6.60;;;;;;;13.10;97.09;98322.77;111595;1201;60993;-84
2021/08/27 03:30:51;;;;;;;7.50;6.70;;;;;;;13.08;96.78;98326.73;111636;1193;61066;-84
2021/08/27 03:33:21;;;;;;;7.70;6.60;;;;;;;13.00;96.69;98332.22;111325;1201;65863;-84
2021/08/27 03:35:52;;;;;;;7.10;5.80;;;;;;;12.92;96.67;98332.51;111522;1200;60973;-84
2021/08/27 03:38:23;;;;;;;7.20;6.10;;;;;;;12.88;96.72;98332.35;111499;1201;63960;-83
2021/08/27 03:40:51;;;;;;;7.10;5.20;;;;;;;12.86;96.81;98337.68;111558;1196;61063;-83
2021/08/27 03:43:20;;;;;;;7.90;5.10;;;;;;;12.85;96.87;98342.43;111484;1200;60999;-84
2021/08/27 03:45:51;;;;;;;6.00;5.10;;;;;;;12.86;96.86;98345.79;111543;1201;66024;-84
2021/08/27 03:48:20;;;;;;;6.00;5.50;;;;;;;12.86;97.04;98346.46;111648;1201;61050;-83
2021/08/27 03:50:54;;;;;;;6.20;5.70;;;;;;;12.91;97.17;98343.85;111500;1201;63659;-83
2021/08/27 03:53:22;;;;;;;6.00;5.40;;;;;;;13.00;97.19;98342.17;111560;1195;61063;-83
2021/08/27 03:55:50;;;;;;;9.00;6.30;;;;;;;13.04;97.04;98341.31;111634;1193;61040;-82
2021/08/27 03:58:20;;;;;;;8.00;6.10;;;;;;;13.06;96.97;98344.13;111557;1201;65828;-84
2021/08/27 04:00:48;;;;;;;;;;;;;;;13.07;96.90;98342.45;111590;1201;60919;-83
2021/08/27 04:03:15;;;;;;;9.70;6.30;;;;;;;13.08;96.90;98342.39;111531;1200;62722;-85
2021/08/27 04:06:06;;;;;;;8.10;6.20;;;;;;;13.11;97.06;98340.31;111550;1200;61028;-85
2021/08/27 04:08:41;;;;;;;6.30;5.30;;;;;;;13.18;96.87;98337.03;111446;1194;61087;-85
2021/08/27 04:11:12;;;;;;;12.40;6.50;;;;;;;13.21;96.77;98336.26;111588;1201;65958;-83
2021/08/27 04:13:40;;;;;;;8.30;6.40;;;;;;;13.28;96.89;98337.63;111497;1201;61065;-85
2021/08/27 04:16:07;;;;;;;9.90;6.90;;;;;;;13.35;96.74;98337.88;111517;1200;64088;-86
2021/08/27 04:18:34;;;;;;;8.70;6.20;;;;;;;13.38;96.48;98342.79;111483;1193;61185;-85
2021/08/27 04:21:01;;;;;;;7.00;5.70;;;;;;;13.35;96.33;98346.50;111520;1201;60977;-84
2021/08/27 04:23:28;;;;;;;8.00;5.40;;;;;;;13.29;96.22;98350.52;111541;1201;64419;-84
2021/08/27 04:25:55;;;;;;;5.90;5.30;;;;;;;13.23;96.19;98351.08;111556;1201;61072;-84
2021/08/27 04:28:22;;;;;;;9.70;5.90;;;;;;;13.21;96.30;98354.33;111378;1201;63831;-84
2021/08/27 04:30:49;;;;;;;6.20;5.60;;;;;;;13.18;96.26;98354.91;111494;1202;61015;-83
2021/08/27 04:33:16;;;;;;;6.30;5.60;;;;;;;13.16;96.33;98354.34;111372;1193;60999;-83
2021/08/27 04:35:42;;;;;;;8.70;5.90;;;;;;;13.20;96.45;98355.83;111513;1202;64717;-84
2021/08/27 04:38:09;;;;;;;8.00;5.60;;;;;;;13.25;96.52;98353.91;111522;1200;61095;-83
2021/08/27 04:40:36;;;;;;;9.70;5.70;;;;;;;13.33;96.47;98360.61;111545;1201;71541;-83
2021/08/27 04:43:03;;;;;;;7.00;5.50;;;;;;;13.36;96.45;98364.05;111480;1193;61076;-83
2021/08/27 04:45:30;;;;;;;7.50;6.60;;;;;;;13.38;96.43;98363.86;111493;1201;61053;-83
2021/08/27 04:47:56;;;;;;;11.60;6.90;;;;;;;13.42;96.43;98363.73;111521;1201;65688;-82
2021/08/27 04:50:23;;;;;;;10.20;7.60;;;;;;;13.45;96.48;98367.02;111518;1193;61297;-84
2021/08/27 04:52:49;;;;;;;10.10;6.90;;;;;;;13.49;96.64;98368.94;111549;1201;64933;-83
2021/08/27 04:55:16;;;;;;;7.80;7.00;;;;;;;13.55;96.73;98372.88;111501;1193;61053;-83
2021/08/27 04:57:43;;;;;;;10.70;6.90;;;;;;;13.61;96.67;98374.12;111311;1195;61186;-84
2021/08/27 05:00:10;;;;;;;8.20;6.50;;;;;;;13.68;96.61;98374.06;111548;1202;75868;-83
2021/08/27 05:02:38;;;;;;;7.50;6.40;;;;;;;13.73;96.37;98373.48;111553;1201;61095;-83
2021/08/27 05:05:06;;;;;;;8.50;7.20;;;;;;;13.71;96.12;98372.02;111336;1195;62585;-83
2021/08/27 05:07:33;;;;;;;8.10;7.30;;;;;;;13.67;96.09;98375.20;111550;1196;61069;-83
2021/08/27 05:10:00;;;;;;;9.30;8.40;;;;;;;13.65;96.17;98373.27;111518;1202;61046;-83
2021/08/27 05:12:27;;;;;;;9.00;8.00;;;;;;;13.65;96.26;98366.67;111561;1193;65670;-83
2021/08/27 05:14:54;;;;;;;10.20;8.80;;;;;;;13.68;96.22;98359.02;111563;1201;61067;-84
2021/08/27 05:17:21;;;;;;;11.50;8.40;;;;;;;13.69;96.02;98359.85;111491;1201;64010;-83
2021/08/27 05:19:47;;;;;;;11.70;8.50;;;;;;;13.72;96.05;98360.30;111476;1192;61611;-83
2021/08/27 05:22:14;;;;;;;10.70;8.70;;;;;;;13.78;96.01;98365.12;111503;1201;61053;-84
2021/08/27 05:24:41;;;;;;;10.60;8.30;;;;;;;13.84;95.87;98362.81;111545;1201;64608;-83
2021/08/27 05:27:07;;;;;;;10.90;8.70;;;;;;;13.91;95.76;98359.64;111571;1201;61095;-83
2021/08/27 05:29:34;;;;;;;10.40;9.30;;;;;;;14.00;95.54;98360.38;111499;1201;63745;-83
2021/08/27 05:32:01;;;;;;;10.90;9.40;;;;;;;14.08;95.31;98360.30;111532;1202;61002;-83
2021/08/27 05:34:28;;;;;;;11.90;10.00;;;;;;;14.12;95.03;98358.27;111511;1201;61018;-83
2021/08/27 05:36:54;;;;;;;12.10;9.70;;;;;;;14.17;95.05;98357.48;111525;1195;64337;-83
2021/08/27 05:39:21;;;;;;;14.10;10.40;;;;;;;14.22;94.88;98361.66;111512;1200;60994;-84
2021/08/27 05:41:48;;;;;;;9.20;8.30;;;;;;;14.27;94.82;98364.24;111499;1201;62584;-84
2021/08/27 05:44:14;;;;;;;9.30;8.40;;;;;;;14.29;94.27;98364.23;111494;1201;60980;-83
2021/08/27 05:46:41;;;;;;;10.90;10.00;;;;;;;14.28;94.00;98363.97;111558;1202;61063;-84
2021/08/27 05:49:08;;;;;;;11.60;10.00;;;;;;;14.32;93.98;98363.80;111538;1200;65967;-84
2021/08/27 05:51:34;;;;;;;14.20;11.10;;;;;;;14.38;93.77;98363.77;111541;1195;61085;-82
2021/08/27 05:54:01;;;;;;;12.20;10.00;;;;;;;14.44;93.60;98366.60;111543;1202;62414;-84
2021/08/27 05:56:28;;;;;;;11.40;9.50;;;;;;;14.47;93.41;98368.27;111515;1202;61085;-83
2021/08/27 05:58:54;;;;;;;9.70;8.80;;;;;;;14.43;93.29;98372.88;111545;1196;61162;-82
2021/08/27 06:01:21;;;;;;;12.90;11.50;;;;;;;14.41;93.20;98376.52;111516;1202;65670;-85
2021/08/27 06:03:48;;;;;;;14.90;12.70;;;;;;;14.34;93.06;98376.40;111527;1202;61070;-85
2021/08/27 06:06:14;;;;;;;14.50;11.50;;;;;;;14.31;92.94;98375.48;111508;1202;63991;-84
2021/08/27 06:08:41;;;;;;;15.00;13.50;;;;;;;14.24;92.75;98380.21;111324;1201;61113;-84
2021/08/27 06:11:07;;;;;;;13.00;11.80;;;;;;;14.21;93.11;98379.96;111531;1200;61056;-84
2021/08/27 06:13:34;;;;;;;14.30;12.80;;;;;;;14.21;92.97;98380.81;111514;1200;65791;-83
2021/08/27 06:16:01;;;;;;;15.00;13.50;;;;;;;14.18;93.08;98382.76;111574;1202;61089;-83
2021/08/27 06:18:28;;;;;;;15.30;13.80;;;;;;;14.17;93.17;98383.21;111564;1201;64643;-84
2021/08/27 06:20:54;;;;;;;17.60;15.70;;;;;;;14.15;93.15;98384.64;111528;1201;61042;-84
2021/08/27 06:23:22;;;;;;;19.00;17.00;;;;;;;14.15;93.15;98388.54;111579;1195;61113;-82
2021/08/27 06:25:48;;;;;;;16.30;14.60;;;;;;;14.19;93.15;98392.52;111534;1195;65945;-86
2021/08/27 06:28:15;;;;;;;16.50;14.90;;;;;;;14.17;93.12;98396.75;111538;1202;61019;-83
2021/08/27 06:30:42;;;;;;;16.40;14.70;;;;;;;14.20;93.34;98393.62;111491;1200;64001;-83
2021/08/27 06:33:09;;;;;;;16.00;13.10;;;;;;;14.22;92.90;98395.29;111523;1201;61037;-83
2021/08/27 06:35:36;;;;;;;19.10;13.20;;;;;;;14.20;92.84;98399.91;111514;1201;60988;-85
2021/08/27 06:38:22;;;;;;;15.40;13.60;;;;;;;14.21;92.75;98402.30;111511;1202;65755;-83
2021/08/27 06:40:55;;;;;;;16.80;15.00;;;;;;;14.23;92.58;98403.18;111525;1193;61070;-84
2021/08/27 06:43:26;;;;;;;14.80;13.30;;;;;;;14.21;92.41;98410.32;111302;1201;63952;-84
2021/08/27 06:45:55;;;;;;;13.90;12.50;;;;;;;14.21;92.55;98404.94;111514;1201;61092;-84
2021/08/27 06:48:22;;;;;;;14.30;12.80;;;;;;;14.23;92.40;98404.29;111517;1196;61082;-82
2021/08/27 06:50:49;;;;;;;14.30;12.70;;;;;;;14.25;92.22;98412.50;111345;1195;66090;-83
2021/08/27 06:53:16;;;;;;;16.10;13.30;;;;;;;14.33;92.41;98412.13;111578;1201;60970;-83
2021/08/27 06:55:43;;;;;;;13.00;11.50;;;;;;;14.44;92.42;98411.11;111522;1202;62309;-83
2021/08/27 06:58:10;;;;;;;12.30;10.90;;;;;;;14.54;92.06;98409.35;111494;1193;61056;-82
2021/08/27 07:00:36;;;;;;;12.50;10.50;;;;;;;14.57;91.57;98412.21;111538;1202;60980;-82
2021/08/27 07:03:03;;;;;;;13.10;11.70;;;;;;;14.63;91.49;98411.73;111611;1196;66027;-84
2021/08/27 07:05:31;;;;;;;11.90;10.50;;;;;;;14.72;91.32;98412.46;111736;1201;61082;-82
2021/08/27 07:07:58;;;;;;;10.60;9.50;;;;;;;14.84;91.26;98416.67;111520;1200;63665;-84
2021/08/27 07:10:28;;;;;;;12.20;8.70;;;;;;;14.94;90.40;98416.50;111505;1193;61046;-87
2021/08/27 07:12:56;;;;;;;10.20;8.90;;;;;;;14.95;90.09;98416.06;111627;1201;60963;-85
2021/08/27 07:15:24;;;;;;;11.50;9.80;;;;;;;14.95;89.89;98416.56;111545;1201;65959;-84
2021/08/27 07:17:51;;;;;;;11.00;9.60;;;;;;;14.95;90.12;98415.86;111494;1193;61106;-85
2021/08/27 07:20:19;;;;;;;10.40;8.90;;;;;;;14.98;90.21;98415.37;111566;1202;63863;-84
2021/08/27 07:22:49;;;;;;;11.30;9.40;;;;;;;15.04;89.99;98417.00;111654;1202;61097;-95
2021/08/27 07:25:17;;;;;;;12.40;9.40;;;;;;;15.07;89.86;98413.95;111508;1197;61059;-91
2021/08/27 07:27:44;;;;;;;12.40;10.20;;;;;;;15.15;89.57;98417.38;111561;1197;65878;-83
2021/08/27 07:30:12;;;;;;;13.20;11.10;;;;;;;15.21;89.71;98418.09;111478;1202;61024;-83
2021/08/27 07:32:38;;;;;;;13.80;11.50;;;;;;;15.29;89.87;98417.83;111334;1202;63633;-83
2021/08/27 07:35:06;;;;;;;11.90;10.00;;;;;;;15.36;89.60;98421.25;111492;1201;61008;-83
2021/08/27 07:37:33;;;;;;;11.30;10.10;;;;;;;15.42;89.54;98422.97;111562;1196;61066;-82
2021/08/27 07:39:59;;;;;;;12.80;10.40;;;;;;;15.49;89.27;98421.59;111323;1196;65888;-83
2021/08/27 07:42:27;;;;;;;11.10;10.10;;;;;;;15.59;88.98;98415.66;111318;1202;61114;-82
2021/08/27 07:44:53;;;;;;;11.00;9.90;;;;;;;15.75;88.63;98417.36;111317;1194;64308;-82
2021/08/27 07:47:20;;;;;;;11.20;9.70;;;;;;;15.88;88.10;98417.86;111518;1195;61072;-81
2021/08/27 07:49:47;;;;;;;11.20;10.10;;;;;;;16.00;87.87;98418.84;111507;1192;61089;-83
2021/08/27 07:52:14;;;;;;;11.00;9.90;;;;;;;16.13;87.81;98421.35;111519;1201;65758;-82
2021/08/27 07:54:40;;;;;;;10.80;9.80;;;;;;;16.18;86.85;98422.48;111509;1202;61721;-81
2021/08/27 07:57:07;;;;;;;11.50;10.40;;;;;;;16.14;87.10;98423.75;111469;1202;63923;-81
2021/08/27 07:59:34;;;;;;;12.00;9.80;;;;;;;16.14;87.27;98422.98;111523;1201;60964;-82
2021/08/27 08:02:00;;;;;;;11.00;9.90;;;;;;;16.22;87.38;98426.55;111492;1202;61011;-81
2021/08/27 08:04:27;;;;;;;10.60;9.50;;;;;;;16.30;86.47;98428.29;111532;1201;64686;-82
2021/08/27 08:06:54;;;;;;;10.50;9.50;;;;;;;16.17;85.33;98430.75;111488;1201;61007;-81
2021/08/27 08:09:20;;;;;;;11.70;9.50;;;;;;;16.02;85.49;98431.33;111318;1202;63658;-82
2021/08/27 08:11:47;;;;;;;10.50;9.40;;;;;;;15.94;86.04;98431.60;111369;1200;61047;-82
2021/08/27 08:14:15;;;;;;;10.00;8.80;;;;;;;15.99;86.42;98436.30;111492;1200;61097;-82
2021/08/27 08:16:42;;;;;;;11.50;10.40;;;;;;;15.99;86.48;98436.16;111499;1195;64905;-82
2021/08/27 08:19:10;;;;;;;12.00;10.90;;;;;;;16.00;86.50;98443.20;111530;1202;61039;-83
2021/08/27 08:21:37;;;;;;;12.90;11.70;;;;;;;16.00;86.20;98442.80;111571;1193;63944;-83
2021/08/27 08:24:05;;;;;;;14.40;10.10;;;;;;;15.92;86.16;98444.55;111533;1202;60998;-82
2021/08/27 08:26:32;;;;;;;11.10;9.70;;;;;;;15.79;86.12;98448.46;111518;1193;60972;-83
2021/08/27 08:28:59;;;;;;;14.20;11.30;;;;;;;15.72;86.59;98450.95;111394;1196;65951;-82
2021/08/27 08:31:25;;;;;;;15.20;11.30;;;;;;;15.74;86.76;98455.45;111520;1201;61085;-82
2021/08/27 08:33:53;;;;;;;11.30;10.00;;;;;;;15.71;86.65;98457.48;111677;1201;62605;-82
2021/08/27 08:36:22;;;;;;;14.60;11.20;;;;;;;15.66;86.53;98458.48;111498;1201;61082;-82
2021/08/27 08:38:50;;;;;;;11.70;10.40;;;;;;;15.58;86.26;98455.64;111576;1201;61088;-83
2021/08/27 08:41:18;;;;;;;13.00;10.00;;;;;;;15.52;85.98;98454.85;111566;1201;64347;-82
2021/08/27 08:43:47;;;;;;;12.90;11.60;;;;;;;15.51;86.21;98454.86;111516;1202;61069;-82
2021/08/27 08:46:14;;;;;;;15.00;13.50;;;;;;;15.50;86.08;98454.05;111504;1202;64046;-82
2021/08/27 08:48:46;;;;;;;13.90;12.40;;;;;;;15.51;86.13;98452.95;111480;1202;61076;-82
2021/08/27 08:51:14;;;;;;;14.10;12.70;;;;;;;15.54;86.07;98454.63;111629;1196;61117;-82
2021/08/27 08:53:45;;;;;;;13.20;11.10;;;;;;;15.62;86.25;98455.63;111562;1201;64618;-82
2021/08/27 08:56:12;;;;;;;11.80;10.10;;;;;;;15.72;85.92;98456.83;111496;1202;61079;-82
2021/08/27 08:58:39;;;;;;;10.60;9.50;;;;;;;15.81;85.86;98456.00;111292;1201;62595;-82
2021/08/27 09:01:11;;;;;;;11.00;9.70;;;;;;;15.93;85.91;98457.36;111486;1201;60989;-82
2021/08/27 09:03:39;;;;;;;12.60;10.30;;;;;;;16.09;85.11;98456.52;111487;1195;61089;-82
2021/08/27 09:06:08;;;;;;;12.70;9.10;;;;;;;16.17;84.05;98458.73;111550;1200;66027;-82
2021/08/27 09:08:39;;;;;;;10.70;9.80;;;;;;;16.25;84.16;98462.09;111525;1196;61053;-82
2021/08/27 09:11:27;;;;;;;10.90;9.70;;;;;;;16.37;83.94;98465.70;111585;1201;63997;-82
2021/08/27 09:14:00;;;;;;;12.00;10.80;;;;;;;16.37;83.46;98465.70;111508;1200;61527;-82
2021/08/27 09:16:29;;;;;;;11.00;9.90;;;;;;;16.33;83.17;98467.17;111572;1202;61014;-82
2021/08/27 09:18:56;;;;;;;10.30;9.40;;;;;;;16.27;83.37;98467.48;111519;1201;66014;-82
2021/08/27 09:21:32;;;;;;;9.30;8.50;;;;;;;16.29;83.34;98467.03;111499;1201;61102;-82
2021/08/27 09:24:23;;;;;;;9.80;8.80;;;;;;;16.34;83.37;98468.96;111509;1201;64946;-81
2021/08/27 09:26:56;;;;;;;9.00;8.20;;;;;;;16.45;83.84;98473.95;111596;1201;61076;-82
2021/08/27 09:29:39;;;;;;;8.80;8.00;;;;;;;16.63;83.50;98472.62;111569;1197;60967;-82
2021/08/27 09:32:27;;;;;;;8.20;7.40;;;;;;;16.75;82.89;98466.98;111524;1202;66237;-82
2021/08/27 09:35:18;;;;;;;9.10;7.90;;;;;;;16.80;82.43;98467.14;111429;1202;61159;-82
2021/08/27 09:37:48;;;;;;;8.30;7.20;;;;;;;16.81;81.71;98471.16;111550;1202;62546;-84
2021/08/27 09:40:32;;;;;;;8.30;7.40;;;;;;;16.73;81.92;98472.95;111431;1202;61095;-84
2021/08/27 09:42:59;;;;;;;7.50;6.90;;;;;;;16.75;82.35;98473.27;111557;1202;61015;-84
2021/08/27 09:45:37;;;;;;;6.50;5.60;;;;;;;16.86;82.27;98469.79;111373;1201;65785;-84
2021/08/27 09:48:07;;;;;;;7.20;6.50;;;;;;;16.94;81.45;98471.90;111608;1201;61050;-84
2021/08/27 09:50:36;;;;;;;5.50;4.90;;;;;;;17.04;81.36;98471.52;111555;1200;63765;-84
2021/08/27 09:53:08;;;;;;;5.90;5.40;;;;;;;17.15;80.07;98472.41;111569;1199;61012;-84
2021/08/27 09:55:37;;;;;;;8.40;5.70;;;;;;;17.25;80.01;98475.88;111524;1201;61137;-84
2021/08/27 09:58:10;;;;;;;7.50;6.00;;;;;;;17.41;80.05;98471.23;111564;1202;66025;-84
2021/08/27 10:00:37;;;;;;;6.80;5.60;;;;;;;17.70;80.20;98474.27;111579;1201;68810;-83
2021/08/27 10:03:22;;;;;;;6.10;5.60;;;;;;;17.97;79.88;98474.36;111536;1200;62492;-83
2021/08/27 10:05:49;;;;;;;7.30;6.60;;;;;;;18.13;79.28;98473.38;111543;1202;60992;-83
2021/08/27 10:08:23;;;;;;;8.00;7.30;;;;;;;18.13;78.69;98477.87;111591;1194;60993;-85
2021/08/27 10:10:53;;;;;;;9.40;8.50;;;;;;;18.02;78.08;98479.38;111589;1200;64801;-85
2021/08/27 10:13:22;;;;;;;8.20;7.00;;;;;;;17.92;78.56;98480.02;111575;1193;61108;-84
2021/08/27 10:15:50;;;;;;;8.40;7.40;;;;;;;17.85;77.59;98480.98;111650;1196;62732;-85
2021/08/27 10:18:16;;;;;;;8.10;6.70;;;;;;;17.68;77.65;98479.34;111803;1196;61177;-85
2021/08/27 10:20:46;;;;;;;7.70;5.50;;;;;;;17.66;77.75;98479.02;111395;1198;61034;-86
2021/08/27 10:23:19;;;;;;;7.10;6.30;;;;;;;17.61;77.10;98479.39;111526;1201;64619;-85
2021/08/27 10:25:47;;;;;;;9.30;6.50;;;;;;;17.54;77.60;98479.46;111557;1201;61424;-88
2021/08/27 10:28:15;;;;;;;6.10;5.50;;;;;;;17.60;77.97;98483.27;111350;1202;62599;-85
2021/08/27 10:30:48;;;;;;;5.90;5.20;;;;;;;17.65;77.88;98478.41;111375;1200;61705;-85
2021/08/27 10:33:15;;;;;;;5.50;3.90;;;;;;;17.64;77.59;98479.34;111551;1200;60999;-85
2021/08/27 10:35:51;;;;;;;4.60;3.90;;;;;;;17.61;77.08;98482.09;111558;1201;65655;-85
2021/08/27 10:38:53;;;;;;;3.30;3.00;;;;;;;17.64;77.35;98479.45;111604;1201;61062;-85
2021/08/27 10:41:27;;;;;;;4.70;3.40;;;;;;;17.60;76.34;98481.27;111467;1197;63911;-85
2021/08/27 10:44:00;;;;;;;5.70;3.40;;;;;;;17.56;76.46;98483.24;111566;1193;61223;-86
2021/08/27 10:46:45;;;;;;;3.20;3.00;;;;;;;17.68;76.85;98478.65;111535;1200;61714;-86
2021/08/27 10:49:16;;;;;;;3.70;3.30;;;;;;;17.88;76.72;98477.77;111529;1196;66017;-84
2021/08/27 10:51:46;;;;;;;5.10;3.50;;;;;;;18.01;75.79;98480.75;111565;1201;61153;-84
2021/08/27 10:54:14;;;;;;;4.60;4.00;;;;;;;18.05;75.67;98478.89;111530;1200;62557;-84
2021/08/27 10:56:42;;;;;;;4.50;4.20;;;;;;;18.17;75.87;98477.05;111525;1192;61073;-84
2021/08/27 10:59:11;;;;;;;4.60;3.90;;;;;;;18.34;75.69;98478.52;111542;1200;61021;-84
2021/08/27 11:01:43;;;;;;;6.20;3.30;;;;;;;18.44;75.07;98479.44;111615;1202;65997;-84
2021/08/27 11:04:16;;;;;;;4.00;3.60;;;;;;;18.42;74.38;98477.98;111613;1201;61078;-84
2021/08/27 11:06:57;;;;;;;3.90;3.30;;;;;;;18.31;74.49;98474.99;111543;1193;63837;-84
2021/08/27 11:09:32;;;;;;;3.30;2.80;;;;;;;18.33;74.47;98477.66;111547;1202;61079;-85
2021/08/27 11:12:24;;;;;;;3.10;2.80;;;;;;;18.33;73.54;98478.73;111520;1196;60964;-84
2021/08/27 11:14:55;;;;;;;4.10;3.00;;;;;;;18.26;73.16;98476.59;111543;1200;65976;-85
2021/08/27 11:17:21;;;;;;;3.80;3.00;;;;;;;18.27;74.00;98478.02;111598;1201;61096;-84
2021/08/27 11:19:58;;;;;;;3.80;3.10;;;;;;;18.41;74.31;98475.25;111543;1202;62978;-84
2021/08/27 11:22:31;;;;;;;3.50;3.20;;;;;;;18.52;74.25;98472.75;111532;1200;60967;-84
2021/08/27 11:25:04;;;;;;;4.60;2.50;;;;;;;18.59;74.03;98473.23;111601;1200;61076;-83
2021/08/27 11:27:32;;;;;;;1.80;1.70;;;;;;;18.60;73.59;98472.08;111545;1201;65659;-84
2021/08/27 11:30:28;;;;;;;1.80;1.40;;;;;;;18.58;72.79;98470.46;111597;1202;60996;-85
2021/08/27 11:32:58;;;;;;;2.00;1.80;;;;;;;18.54;71.95;98468.98;111541;1202;63969;-83